Main page
METAR-TAF:

METAR-TAF

Airports :

Georgetown, Ascension Island

RAF Ascension Island

latitude: 07-58S, longitude: 014-24W, elevation: 86 m

Current weather observation

The report was made 2 hours and 48 minutes ago, at 17:50 UTC
Wind 15 kt from the South/Southeast
Temperature 26°C
Humidity 58%
Pressure 1017 hPa
Visibility 10 km or more
Broken clouds at a height of 4400 ft

METAR: FHAW 201750Z 15015KT 9999 BKN044 26/17 Q1017 BLU

Time: 20:38 (20:38 UTC)

Forecast

The report was made 34 hours and 8 minutes ago, at 10:30 UTC
Forecast valid from 19 at 12 UTC to 20 at 06 UTC
Wind 15 kt from the Southeast
Visibility 10 km or more
Scattered clouds at a height of 2500 ft
Probability 30% :
Temporary
from 19 at 12 UTC to 20 at 06 UTC
Wind 15 kt from the Southeast with gusts up to 25 kt
Scattered clouds at a height of 1800 ft

TAF: FHAW 191030Z 1912/2006 14015KT 9999 SCT025 PROB30 TEMPO 1912/2006 14015G25KT SCT018

Weather observations and forecasts of more than 4000 airports (METAR and TAF reports).

The available stations are represented by yellow and red dots on the map.

Hover mouse over dot to see the name of the station.

Then click to see weather observations and forecasts.

To change the map : click on the green buttons with a black cross to zoom in, on the green button with a dash to zoom out, or on the green arrows for adjacent maps.


METAR-TAF: